sensor_id;sensor_type;location;lat;lon;timestamp;temperature;humidity
11035;DHT22;5571;48.110;-1.706;2024-03-02T00:00:08;5.50;99.90
11035;DHT22;5571;48.110;-1.706;2024-03-02T00:02:47;5.60;99.90
11035;DHT22;5571;48.110;-1.706;2024-03-02T00:05:18;5.70;99.90
11035;DHT22;5571;48.110;-1.706;2024-03-02T00:07:46;5.80;99.90
11035;DHT22;5571;48.110;-1.706;2024-03-02T00:10:16;5.90;99.90
11035;DHT22;5571;48.110;-1.706;2024-03-02T00:12:47;5.90;99.90
11035;DHT22;5571;48.110;-1.706;2024-03-02T00:18:10;5.90;99.90
11035;DHT22;5571;48.110;-1.706;2024-03-02T00:20:36;6.00;99.90
11035;DHT22;5571;48.110;-1.706;2024-03-02T00:23:06;6.00;99.90
11035;DHT22;5571;48.110;-1.706;2024-03-02T00:25:52;6.00;99.90
11035;DHT22;5571;48.110;-1.706;2024-03-02T00:28:23;6.00;99.90
11035;DHT22;5571;48.110;-1.706;2024-03-02T00:30:58;6.10;99.90
11035;DHT22;5571;48.110;-1.706;2024-03-02T00:33:32;6.00;99.90
11035;DHT22;5571;48.110;-1.706;2024-03-02T00:35:57;6.00;99.90
11035;DHT22;5571;48.110;-1.706;2024-03-02T00:38:24;6.00;99.90
11035;DHT22;5571;48.110;-1.706;2024-03-02T00:40:51;6.10;99.90
11035;DHT22;5571;48.110;-1.706;2024-03-02T00:46:07;6.20;99.90
11035;DHT22;5571;48.110;-1.706;2024-03-02T00:48:33;6.20;99.90
11035;DHT22;5571;48.110;-1.706;2024-03-02T00:51:03;6.30;99.90
11035;DHT22;5571;48.110;-1.706;2024-03-02T00:53:31;6.20;99.90
11035;DHT22;5571;48.110;-1.706;2024-03-02T00:56:01;6.30;99.90
11035;DHT22;5571;48.110;-1.706;2024-03-02T00:58:26;6.30;99.90
11035;DHT22;5571;48.110;-1.706;2024-03-02T01:00:52;6.30;99.90
11035;DHT22;5571;48.110;-1.706;2024-03-02T01:03:18;6.30;99.90
11035;DHT22;5571;48.110;-1.706;2024-03-02T01:05:44;6.30;99.90
11035;DHT22;5571;48.110;-1.706;2024-03-02T01:08:10;6.30;99.90
11035;DHT22;5571;48.110;-1.706;2024-03-02T01:10:36;6.40;99.90
11035;DHT22;5571;48.110;-1.706;2024-03-02T01:13:02;6.50;99.90
11035;DHT22;5571;48.110;-1.706;2024-03-02T01:15:28;6.50;99.90
11035;DHT22;5571;48.110;-1.706;2024-03-02T01:17:53;6.50;99.90
11035;DHT22;5571;48.110;-1.706;2024-03-02T01:20:19;6.60;99.90
11035;DHT22;5571;48.110;-1.706;2024-03-02T01:22:45;6.50;99.90
11035;DHT22;5571;48.110;-1.706;2024-03-02T01:25:11;6.50;99.90
11035;DHT22;5571;48.110;-1.706;2024-03-02T01:27:36;6.50;99.90
11035;DHT22;5571;48.110;-1.706;2024-03-02T01:30:02;6.50;99.90
11035;DHT22;5571;48.110;-1.706;2024-03-02T01:32:28;6.50;99.90
11035;DHT22;5571;48.110;-1.706;2024-03-02T01:34:53;6.40;99.90
11035;DHT22;5571;48.110;-1.706;2024-03-02T01:37:19;6.40;99.90
11035;DHT22;5571;48.110;-1.706;2024-03-02T01:39:44;6.40;99.90
11035;DHT22;5571;48.110;-1.706;2024-03-02T01:42:10;6.40;99.90
11035;DHT22;5571;48.110;-1.706;2024-03-02T01:44:40;6.40;99.90
11035;DHT22;5571;48.110;-1.706;2024-03-02T01:47:05;6.40;99.90
11035;DHT22;5571;48.110;-1.706;2024-03-02T01:49:31;6.30;99.90
11035;DHT22;5571;48.110;-1.706;2024-03-02T01:51:58;6.30;99.90
11035;DHT22;5571;48.110;-1.706;2024-03-02T01:54:24;6.30;99.90
11035;DHT22;5571;48.110;-1.706;2024-03-02T01:56:49;6.30;99.90
11035;DHT22;5571;48.110;-1.706;2024-03-02T01:59:15;6.40;99.90
11035;DHT22;5571;48.110;-1.706;2024-03-02T02:01:40;6.40;99.90
11035;DHT22;5571;48.110;-1.706;2024-03-02T02:04:06;6.40;99.90
11035;DHT22;5571;48.110;-1.706;2024-03-02T02:06:32;6.30;99.90
11035;DHT22;5571;48.110;-1.706;2024-03-02T02:08:58;6.40;99.90
11035;DHT22;5571;48.110;-1.706;2024-03-02T02:11:24;6.40;99.90
11035;DHT22;5571;48.110;-1.706;2024-03-02T02:13:50;6.40;99.90
11035;DHT22;5571;48.110;-1.706;2024-03-02T02:16:16;6.40;99.90
11035;DHT22;5571;48.110;-1.706;2024-03-02T02:18:41;6.40;99.90
11035;DHT22;5571;48.110;-1.706;2024-03-02T02:21:07;6.40;99.90
11035;DHT22;5571;48.110;-1.706;2024-03-02T02:23:33;6.50;99.90
11035;DHT22;5571;48.110;-1.706;2024-03-02T02:25:58;6.40;99.90
11035;DHT22;5571;48.110;-1.706;2024-03-02T02:28:24;6.50;99.90
11035;DHT22;5571;48.110;-1.706;2024-03-02T02:30:50;6.60;99.90
11035;DHT22;5571;48.110;-1.706;2024-03-02T02:33:15;6.60;99.90
11035;DHT22;5571;48.110;-1.706;2024-03-02T02:35:41;6.50;99.90
11035;DHT22;5571;48.110;-1.706;2024-03-02T02:38:06;6.50;99.90
11035;DHT22;5571;48.110;-1.706;2024-03-02T02:40:32;6.50;99.90
11035;DHT22;5571;48.110;-1.706;2024-03-02T02:42:58;6.50;99.90
11035;DHT22;5571;48.110;-1.706;2024-03-02T02:45:27;6.50;99.90
11035;DHT22;5571;48.110;-1.706;2024-03-02T02:47:52;6.50;99.90
11035;DHT22;5571;48.110;-1.706;2024-03-02T02:50:18;6.60;99.90
11035;DHT22;5571;48.110;-1.706;2024-03-02T02:52:43;6.60;99.90
11035;DHT22;5571;48.110;-1.706;2024-03-02T02:55:10;6.50;99.90
11035;DHT22;5571;48.110;-1.706;2024-03-02T02:57:38;6.50;99.90
11035;DHT22;5571;48.110;-1.706;2024-03-02T03:00:12;6.50;99.90
11035;DHT22;5571;48.110;-1.706;2024-03-02T03:02:41;6.40;99.90
11035;DHT22;5571;48.110;-1.706;2024-03-02T03:05:09;6.40;99.90
11035;DHT22;5571;48.110;-1.706;2024-03-02T03:07:35;6.40;99.90
11035;DHT22;5571;48.110;-1.706;2024-03-02T03:10:02;6.40;99.90
11035;DHT22;5571;48.110;-1.706;2024-03-02T03:12:28;6.40;99.90
11035;DHT22;5571;48.110;-1.706;2024-03-02T03:14:54;6.40;99.90
11035;DHT22;5571;48.110;-1.706;2024-03-02T03:17:21;6.40;99.90
11035;DHT22;5571;48.110;-1.706;2024-03-02T03:19:47;6.40;99.90
11035;DHT22;5571;48.110;-1.706;2024-03-02T03:22:12;6.40;99.90
11035;DHT22;5571;48.110;-1.706;2024-03-02T03:24:38;6.40;99.90
11035;DHT22;5571;48.110;-1.706;2024-03-02T03:27:04;6.40;99.90
11035;DHT22;5571;48.110;-1.706;2024-03-02T03:29:30;6.30;99.90
11035;DHT22;5571;48.110;-1.706;2024-03-02T03:31:55;6.30;99.90
11035;DHT22;5571;48.110;-1.706;2024-03-02T03:34:21;6.30;99.90
11035;DHT22;5571;48.110;-1.706;2024-03-02T03:36:46;6.20;99.90
11035;DHT22;5571;48.110;-1.706;2024-03-02T03:39:12;6.20;99.90
11035;DHT22;5571;48.110;-1.706;2024-03-02T03:41:37;6.20;99.90
11035;DHT22;5571;48.110;-1.706;2024-03-02T03:44:03;6.10;99.90
11035;DHT22;5571;48.110;-1.706;2024-03-02T03:46:29;6.10;99.90
11035;DHT22;5571;48.110;-1.706;2024-03-02T03:48:55;6.10;99.90
11035;DHT22;5571;48.110;-1.706;2024-03-02T03:51:21;6.10;99.90
11035;DHT22;5571;48.110;-1.706;2024-03-02T03:53:49;6.10;99.90
11035;DHT22;5571;48.110;-1.706;2024-03-02T03:56:15;6.00;99.90
11035;DHT22;5571;48.110;-1.706;2024-03-02T03:58:41;6.00;99.90
11035;DHT22;5571;48.110;-1.706;2024-03-02T04:01:06;6.00;99.90
11035;DHT22;5571;48.110;-1.706;2024-03-02T04:03:32;6.00;99.90
11035;DHT22;5571;48.110;-1.706;2024-03-02T04:05:58;6.00;99.90
11035;DHT22;5571;48.110;-1.706;2024-03-02T04:08:23;6.00;99.90
11035;DHT22;5571;48.110;-1.706;2024-03-02T04:10:49;5.90;99.90
11035;DHT22;5571;48.110;-1.706;2024-03-02T04:13:14;5.90;99.90
11035;DHT22;5571;48.110;-1.706;2024-03-02T04:15:42;5.90;99.90
11035;DHT22;5571;48.110;-1.706;2024-03-02T04:18:08;5.80;99.90
11035;DHT22;5571;48.110;-1.706;2024-03-02T04:20:34;5.80;99.90
11035;DHT22;5571;48.110;-1.706;2024-03-02T04:22:59;5.80;99.90
11035;DHT22;5571;48.110;-1.706;2024-03-02T04:25:25;5.80;99.90
11035;DHT22;5571;48.110;-1.706;2024-03-02T04:27:50;5.80;99.90
11035;DHT22;5571;48.110;-1.706;2024-03-02T04:30:16;5.70;99.90
11035;DHT22;5571;48.110;-1.706;2024-03-02T04:32:41;5.70;99.90
11035;DHT22;5571;48.110;-1.706;2024-03-02T04:35:11;5.80;99.90
11035;DHT22;5571;48.110;-1.706;2024-03-02T04:37:37;5.70;99.90
11035;DHT22;5571;48.110;-1.706;2024-03-02T04:40:03;5.70;99.90
11035;DHT22;5571;48.110;-1.706;2024-03-02T04:42:29;5.60;99.90
11035;DHT22;5571;48.110;-1.706;2024-03-02T04:44:55;5.60;99.90
11035;DHT22;5571;48.110;-1.706;2024-03-02T04:47:20;5.50;99.90
11035;DHT22;5571;48.110;-1.706;2024-03-02T04:49:46;5.60;99.90
11035;DHT22;5571;48.110;-1.706;2024-03-02T04:52:11;5.50;99.90
11035;DHT22;5571;48.110;-1.706;2024-03-02T04:54:37;5.50;99.90
11035;DHT22;5571;48.110;-1.706;2024-03-02T04:57:22;5.50;99.90
11035;DHT22;5571;48.110;-1.706;2024-03-02T04:59:48;5.50;99.90
11035;DHT22;5571;48.110;-1.706;2024-03-02T05:02:14;5.50;99.90
11035;DHT22;5571;48.110;-1.706;2024-03-02T05:04:40;5.60;99.90
11035;DHT22;5571;48.110;-1.706;2024-03-02T05:07:05;5.60;99.90
11035;DHT22;5571;48.110;-1.706;2024-03-02T05:09:31;5.70;99.90
11035;DHT22;5571;48.110;-1.706;2024-03-02T05:11:56;5.70;99.90
11035;DHT22;5571;48.110;-1.706;2024-03-02T05:14:42;5.70;99.90
11035;DHT22;5571;48.110;-1.706;2024-03-02T05:17:08;5.70;99.90
11035;DHT22;5571;48.110;-1.706;2024-03-02T05:19:34;5.60;99.90
11035;DHT22;5571;48.110;-1.706;2024-03-02T05:21:59;5.60;99.90
11035;DHT22;5571;48.110;-1.706;2024-03-02T05:24:25;5.60;99.90
11035;DHT22;5571;48.110;-1.706;2024-03-02T05:26:53;5.50;99.90
11035;DHT22;5571;48.110;-1.706;2024-03-02T05:29:18;5.50;99.90
11035;DHT22;5571;48.110;-1.706;2024-03-02T05:31:44;5.50;99.90
11035;DHT22;5571;48.110;-1.706;2024-03-02T05:34:10;5.60;99.90
11035;DHT22;5571;48.110;-1.706;2024-03-02T05:36:35;5.60;99.90
11035;DHT22;5571;48.110;-1.706;2024-03-02T05:39:02;5.60;99.90
11035;DHT22;5571;48.110;-1.706;2024-03-02T05:41:30;5.60;99.90
11035;DHT22;5571;48.110;-1.706;2024-03-02T05:43:56;5.50;99.90
11035;DHT22;5571;48.110;-1.706;2024-03-02T05:46:22;5.50;99.90
11035;DHT22;5571;48.110;-1.706;2024-03-02T05:48:47;5.50;99.90
11035;DHT22;5571;48.110;-1.706;2024-03-02T05:51:13;5.50;99.90
11035;DHT22;5571;48.110;-1.706;2024-03-02T05:53:39;5.50;99.90
11035;DHT22;5571;48.110;-1.706;2024-03-02T05:56:05;5.50;99.90
11035;DHT22;5571;48.110;-1.706;2024-03-02T05:58:31;5.50;99.90
11035;DHT22;5571;48.110;-1.706;2024-03-02T06:01:15;5.50;99.90
11035;DHT22;5571;48.110;-1.706;2024-03-02T06:03:43;5.50;99.90
11035;DHT22;5571;48.110;-1.706;2024-03-02T06:06:09;5.60;99.90
11035;DHT22;5571;48.110;-1.706;2024-03-02T06:08:34;5.60;99.90
11035;DHT22;5571;48.110;-1.706;2024-03-02T06:11:00;5.60;99.90
11035;DHT22;5571;48.110;-1.706;2024-03-02T06:13:26;5.60;99.90
11035;DHT22;5571;48.110;-1.706;2024-03-02T06:15:52;5.60;99.90
11035;DHT22;5571;48.110;-1.706;2024-03-02T06:18:18;5.60;99.90
11035;DHT22;5571;48.110;-1.706;2024-03-02T06:20:43;5.60;99.90
11035;DHT22;5571;48.110;-1.706;2024-03-02T06:23:09;5.60;99.90
11035;DHT22;5571;48.110;-1.706;2024-03-02T06:25:35;5.60;99.90
11035;DHT22;5571;48.110;-1.706;2024-03-02T06:28:01;5.60;99.90
11035;DHT22;5571;48.110;-1.706;2024-03-02T06:30:26;5.60;99.90
11035;DHT22;5571;48.110;-1.706;2024-03-02T06:32:52;5.60;99.90
11035;DHT22;5571;48.110;-1.706;2024-03-02T06:35:17;5.60;99.90
11035;DHT22;5571;48.110;-1.706;2024-03-02T06:37:43;5.70;99.90
11035;DHT22;5571;48.110;-1.706;2024-03-02T06:40:09;5.70;99.90
11035;DHT22;5571;48.110;-1.706;2024-03-02T06:42:35;5.70;99.90
11035;DHT22;5571;48.110;-1.706;2024-03-02T06:45:02;5.60;99.90
11035;DHT22;5571;48.110;-1.706;2024-03-02T06:47:28;5.60;99.90
11035;DHT22;5571;48.110;-1.706;2024-03-02T06:49:53;5.60;99.90
11035;DHT22;5571;48.110;-1.706;2024-03-02T06:52:19;5.60;99.90
11035;DHT22;5571;48.110;-1.706;2024-03-02T06:54:46;5.60;99.90
11035;DHT22;5571;48.110;-1.706;2024-03-02T06:57:12;5.60;99.90
11035;DHT22;5571;48.110;-1.706;2024-03-02T06:59:37;5.60;99.90
11035;DHT22;5571;48.110;-1.706;2024-03-02T07:02:03;5.60;99.90
11035;DHT22;5571;48.110;-1.706;2024-03-02T07:04:29;5.60;99.90
11035;DHT22;5571;48.110;-1.706;2024-03-02T07:06:54;5.50;99.90
11035;DHT22;5571;48.110;-1.706;2024-03-02T07:09:20;5.50;99.90
11035;DHT22;5571;48.110;-1.706;2024-03-02T07:11:48;5.50;99.90
11035;DHT22;5571;48.110;-1.706;2024-03-02T07:14:14;5.60;99.90
11035;DHT22;5571;48.110;-1.706;2024-03-02T07:16:40;5.50;99.90
11035;DHT22;5571;48.110;-1.706;2024-03-02T07:19:06;5.60;99.90
11035;DHT22;5571;48.110;-1.706;2024-03-02T07:21:32;5.50;99.90
11035;DHT22;5571;48.110;-1.706;2024-03-02T07:23:58;5.50;99.90
11035;DHT22;5571;48.110;-1.706;2024-03-02T07:26:25;5.50;99.90
11035;DHT22;5571;48.110;-1.706;2024-03-02T07:28:51;5.50;99.90
11035;DHT22;5571;48.110;-1.706;2024-03-02T07:31:16;5.50;99.90
11035;DHT22;5571;48.110;-1.706;2024-03-02T07:33:45;5.40;99.90
11035;DHT22;5571;48.110;-1.706;2024-03-02T07:36:14;5.40;99.90
11035;DHT22;5571;48.110;-1.706;2024-03-02T07:38:40;5.40;99.90
11035;DHT22;5571;48.110;-1.706;2024-03-02T07:41:06;5.40;99.90
11035;DHT22;5571;48.110;-1.706;2024-03-02T07:43:33;5.40;99.90
11035;DHT22;5571;48.110;-1.706;2024-03-02T07:45:59;5.40;99.90
11035;DHT22;5571;48.110;-1.706;2024-03-02T07:48:25;5.40;99.90
11035;DHT22;5571;48.110;-1.706;2024-03-02T07:50:51;5.40;99.90
11035;DHT22;5571;48.110;-1.706;2024-03-02T07:53:16;5.50;99.90
11035;DHT22;5571;48.110;-1.706;2024-03-02T07:55:42;5.50;99.90
11035;DHT22;5571;48.110;-1.706;2024-03-02T07:58:08;5.50;99.90
11035;DHT22;5571;48.110;-1.706;2024-03-02T08:00:34;5.50;99.90
11035;DHT22;5571;48.110;-1.706;2024-03-02T08:03:01;5.50;99.90
11035;DHT22;5571;48.110;-1.706;2024-03-02T08:05:26;5.60;99.90
11035;DHT22;5571;48.110;-1.706;2024-03-02T08:07:53;5.60;99.90
11035;DHT22;5571;48.110;-1.706;2024-03-02T08:10:19;5.60;99.90
11035;DHT22;5571;48.110;-1.706;2024-03-02T08:12:45;5.60;99.90
11035;DHT22;5571;48.110;-1.706;2024-03-02T08:15:11;5.70;99.90
11035;DHT22;5571;48.110;-1.706;2024-03-02T08:17:39;5.70;99.90
11035;DHT22;5571;48.110;-1.706;2024-03-02T08:20:11;5.80;99.90
11035;DHT22;5571;48.110;-1.706;2024-03-02T08:22:37;5.80;99.90
11035;DHT22;5571;48.110;-1.706;2024-03-02T08:25:03;5.80;99.90
11035;DHT22;5571;48.110;-1.706;2024-03-02T08:27:29;5.90;99.90
11035;DHT22;5571;48.110;-1.706;2024-03-02T08:29:54;5.90;99.90
11035;DHT22;5571;48.110;-1.706;2024-03-02T08:32:20;5.90;99.90
11035;DHT22;5571;48.110;-1.706;2024-03-02T08:34:46;5.90;99.90
11035;DHT22;5571;48.110;-1.706;2024-03-02T08:37:11;6.00;99.90
11035;DHT22;5571;48.110;-1.706;2024-03-02T08:39:37;6.00;99.90
11035;DHT22;5571;48.110;-1.706;2024-03-02T08:42:02;5.90;99.90
11035;DHT22;5571;48.110;-1.706;2024-03-02T08:44:30;5.90;99.90
11035;DHT22;5571;48.110;-1.706;2024-03-02T08:46:55;6.00;99.90
11035;DHT22;5571;48.110;-1.706;2024-03-02T08:49:21;6.00;99.90
11035;DHT22;5571;48.110;-1.706;2024-03-02T08:51:48;6.00;99.90
11035;DHT22;5571;48.110;-1.706;2024-03-02T08:54:21;6.00;99.90
11035;DHT22;5571;48.110;-1.706;2024-03-02T08:56:47;6.00;99.90
11035;DHT22;5571;48.110;-1.706;2024-03-02T08:59:13;6.00;99.90
11035;DHT22;5571;48.110;-1.706;2024-03-02T09:01:39;6.10;99.90
11035;DHT22;5571;48.110;-1.706;2024-03-02T09:04:07;6.10;99.90
11035;DHT22;5571;48.110;-1.706;2024-03-02T09:06:34;6.10;99.90
11035;DHT22;5571;48.110;-1.706;2024-03-02T09:09:00;6.10;99.90
11035;DHT22;5571;48.110;-1.706;2024-03-02T09:11:26;6.20;99.90
11035;DHT22;5571;48.110;-1.706;2024-03-02T09:13:51;6.20;99.90
11035;DHT22;5571;48.110;-1.706;2024-03-02T09:16:18;6.20;99.90
11035;DHT22;5571;48.110;-1.706;2024-03-02T09:18:44;6.20;99.90
11035;DHT22;5571;48.110;-1.706;2024-03-02T09:21:09;6.20;99.90
11035;DHT22;5571;48.110;-1.706;2024-03-02T09:23:35;6.20;99.90
11035;DHT22;5571;48.110;-1.706;2024-03-02T09:26:01;6.30;99.90
11035;DHT22;5571;48.110;-1.706;2024-03-02T09:28:26;6.30;99.90
11035;DHT22;5571;48.110;-1.706;2024-03-02T09:30:52;6.40;99.90
11035;DHT22;5571;48.110;-1.706;2024-03-02T09:33:18;6.40;99.90
11035;DHT22;5571;48.110;-1.706;2024-03-02T09:35:43;6.60;99.90
11035;DHT22;5571;48.110;-1.706;2024-03-02T09:38:09;6.70;99.90
11035;DHT22;5571;48.110;-1.706;2024-03-02T09:40:34;6.90;99.90
11035;DHT22;5571;48.110;-1.706;2024-03-02T09:43:00;7.00;99.90
11035;DHT22;5571;48.110;-1.706;2024-03-02T09:45:27;7.00;99.90
11035;DHT22;5571;48.110;-1.706;2024-03-02T09:47:52;7.10;99.90
11035;DHT22;5571;48.110;-1.706;2024-03-02T09:50:18;7.20;99.90
11035;DHT22;5571;48.110;-1.706;2024-03-02T09:52:44;7.30;99.90
11035;DHT22;5571;48.110;-1.706;2024-03-02T09:55:13;7.30;99.90
11035;DHT22;5571;48.110;-1.706;2024-03-02T09:57:39;7.40;99.90
11035;DHT22;5571;48.110;-1.706;2024-03-02T10:00:08;7.40;99.90
11035;DHT22;5571;48.110;-1.706;2024-03-02T10:02:33;7.50;99.90
11035;DHT22;5571;48.110;-1.706;2024-03-02T10:04:59;7.60;99.90
11035;DHT22;5571;48.110;-1.706;2024-03-02T10:07:25;7.70;99.90
11035;DHT22;5571;48.110;-1.706;2024-03-02T10:09:50;7.80;99.90
11035;DHT22;5571;48.110;-1.706;2024-03-02T10:12:18;8.00;99.90
11035;DHT22;5571;48.110;-1.706;2024-03-02T10:14:44;8.10;99.90
11035;DHT22;5571;48.110;-1.706;2024-03-02T10:17:13;8.30;99.90
11035;DHT22;5571;48.110;-1.706;2024-03-02T10:19:39;8.40;99.90
11035;DHT22;5571;48.110;-1.706;2024-03-02T10:22:07;8.50;99.90
11035;DHT22;5571;48.110;-1.706;2024-03-02T10:24:43;8.50;99.90
11035;DHT22;5571;48.110;-1.706;2024-03-02T10:27:22;8.40;99.90
11035;DHT22;5571;48.110;-1.706;2024-03-02T10:29:49;8.40;99.90
11035;DHT22;5571;48.110;-1.706;2024-03-02T10:32:16;8.50;99.90
11035;DHT22;5571;48.110;-1.706;2024-03-02T10:34:46;8.50;99.90
11035;DHT22;5571;48.110;-1.706;2024-03-02T10:37:12;8.50;99.90
11035;DHT22;5571;48.110;-1.706;2024-03-02T10:39:39;8.50;99.90
11035;DHT22;5571;48.110;-1.706;2024-03-02T10:42:08;8.40;99.90
11035;DHT22;5571;48.110;-1.706;2024-03-02T10:44:34;8.50;99.90
11035;DHT22;5571;48.110;-1.706;2024-03-02T10:47:01;8.50;99.90
11035;DHT22;5571;48.110;-1.706;2024-03-02T10:49:31;8.50;99.90
11035;DHT22;5571;48.110;-1.706;2024-03-02T10:52:00;8.50;99.90
11035;DHT22;5571;48.110;-1.706;2024-03-02T10:54:26;8.40;99.90
11035;DHT22;5571;48.110;-1.706;2024-03-02T10:56:53;8.40;99.90
11035;DHT22;5571;48.110;-1.706;2024-03-02T11:01:57;8.30;99.90
11035;DHT22;5571;48.110;-1.706;2024-03-02T11:04:25;8.30;99.90
11035;DHT22;5571;48.110;-1.706;2024-03-02T11:06:52;8.40;99.90
11035;DHT22;5571;48.110;-1.706;2024-03-02T11:09:22;8.40;99.90
11035;DHT22;5571;48.110;-1.706;2024-03-02T11:12:19;8.50;99.90
11035;DHT22;5571;48.110;-1.706;2024-03-02T11:14:45;8.60;99.90
11035;DHT22;5571;48.110;-1.706;2024-03-02T11:17:12;8.90;99.90
11035;DHT22;5571;48.110;-1.706;2024-03-02T11:19:39;9.10;99.90
11035;DHT22;5571;48.110;-1.706;2024-03-02T11:22:05;9.30;99.90
11035;DHT22;5571;48.110;-1.706;2024-03-02T11:24:32;9.40;99.90
11035;DHT22;5571;48.110;-1.706;2024-03-02T11:27:02;9.40;99.90
11035;DHT22;5571;48.110;-1.706;2024-03-02T11:32:13;9.50;99.90
11035;DHT22;5571;48.110;-1.706;2024-03-02T11:34:41;9.70;99.90
11035;DHT22;5571;48.110;-1.706;2024-03-02T11:37:15;9.90;99.90
11035;DHT22;5571;48.110;-1.706;2024-03-02T11:39:43;9.90;99.90
11035;DHT22;5571;48.110;-1.706;2024-03-02T11:42:11;9.80;99.90
11035;DHT22;5571;48.110;-1.706;2024-03-02T11:44:38;9.60;99.90
11035;DHT22;5571;48.110;-1.706;2024-03-02T11:47:07;9.40;99.90
11035;DHT22;5571;48.110;-1.706;2024-03-02T11:49:41;9.40;99.90
11035;DHT22;5571;48.110;-1.706;2024-03-02T11:52:15;9.40;99.90
11035;DHT22;5571;48.110;-1.706;2024-03-02T11:54:43;9.70;99.90
11035;DHT22;5571;48.110;-1.706;2024-03-02T11:57:18;10.10;99.90
11035;DHT22;5571;48.110;-1.706;2024-03-02T11:59:44;10.30;99.90
11035;DHT22;5571;48.110;-1.706;2024-03-02T12:02:21;10.40;99.90
11035;DHT22;5571;48.110;-1.706;2024-03-02T12:04:48;10.50;99.90
11035;DHT22;5571;48.110;-1.706;2024-03-02T12:07:21;10.60;99.90
11035;DHT22;5571;48.110;-1.706;2024-03-02T12:09:48;10.80;99.90
11035;DHT22;5571;48.110;-1.706;2024-03-02T12:12:13;10.70;99.90
11035;DHT22;5571;48.110;-1.706;2024-03-02T12:14:50;10.80;99.90
11035;DHT22;5571;48.110;-1.706;2024-03-02T12:17:16;10.70;99.90
11035;DHT22;5571;48.110;-1.706;2024-03-02T12:19:41;10.60;99.90
11035;DHT22;5571;48.110;-1.706;2024-03-02T12:22:07;10.40;99.90
11035;DHT22;5571;48.110;-1.706;2024-03-02T12:24:33;10.30;99.90
11035;DHT22;5571;48.110;-1.706;2024-03-02T12:26:58;10.30;99.90
11035;DHT22;5571;48.110;-1.706;2024-03-02T12:29:24;10.30;99.90
11035;DHT22;5571;48.110;-1.706;2024-03-02T12:31:51;10.10;99.90
11035;DHT22;5571;48.110;-1.706;2024-03-02T12:34:18;10.00;99.90
11035;DHT22;5571;48.110;-1.706;2024-03-02T12:36:45;10.00;99.90
11035;DHT22;5571;48.110;-1.706;2024-03-02T12:39:13;10.20;99.90
11035;DHT22;5571;48.110;-1.706;2024-03-02T12:41:39;10.20;99.90
11035;DHT22;5571;48.110;-1.706;2024-03-02T12:44:05;10.30;99.90
11035;DHT22;5571;48.110;-1.706;2024-03-02T12:46:32;10.30;99.90
11035;DHT22;5571;48.110;-1.706;2024-03-02T12:49:11;10.20;99.90
11035;DHT22;5571;48.110;-1.706;2024-03-02T12:51:38;10.20;99.90
11035;DHT22;5571;48.110;-1.706;2024-03-02T12:54:06;10.10;99.90
11035;DHT22;5571;48.110;-1.706;2024-03-02T12:56:32;10.10;99.90
11035;DHT22;5571;48.110;-1.706;2024-03-02T12:58:58;10.00;99.90
11035;DHT22;5571;48.110;-1.706;2024-03-02T13:01:25;10.00;99.90
11035;DHT22;5571;48.110;-1.706;2024-03-02T13:03:53;10.00;99.90
11035;DHT22;5571;48.110;-1.706;2024-03-02T13:06:20;9.90;99.90
11035;DHT22;5571;48.110;-1.706;2024-03-02T13:08:46;9.90;99.90
11035;DHT22;5571;48.110;-1.706;2024-03-02T13:11:12;10.10;99.90
11035;DHT22;5571;48.110;-1.706;2024-03-02T13:13:39;10.50;99.90
11035;DHT22;5571;48.110;-1.706;2024-03-02T13:16:09;10.70;99.90
11035;DHT22;5571;48.110;-1.706;2024-03-02T13:18:35;11.00;99.90
11035;DHT22;5571;48.110;-1.706;2024-03-02T13:21:01;11.40;99.90
11035;DHT22;5571;48.110;-1.706;2024-03-02T13:23:27;11.40;99.90
11035;DHT22;5571;48.110;-1.706;2024-03-02T13:25:56;11.20;99.90
11035;DHT22;5571;48.110;-1.706;2024-03-02T13:28:23;11.00;99.90
11035;DHT22;5571;48.110;-1.706;2024-03-02T13:30:49;10.80;99.90
11035;DHT22;5571;48.110;-1.706;2024-03-02T13:33:15;10.50;99.90
11035;DHT22;5571;48.110;-1.706;2024-03-02T13:35:40;10.20;99.90
11035;DHT22;5571;48.110;-1.706;2024-03-02T13:38:06;10.10;99.90
11035;DHT22;5571;48.110;-1.706;2024-03-02T13:40:31;10.00;99.90
11035;DHT22;5571;48.110;-1.706;2024-03-02T13:43:01;10.00;99.90
11035;DHT22;5571;48.110;-1.706;2024-03-02T13:45:27;9.90;99.90
11035;DHT22;5571;48.110;-1.706;2024-03-02T13:47:53;9.90;99.90
11035;DHT22;5571;48.110;-1.706;2024-03-02T13:50:20;10.00;99.90
11035;DHT22;5571;48.110;-1.706;2024-03-02T13:52:45;10.10;99.90
11035;DHT22;5571;48.110;-1.706;2024-03-02T13:55:12;10.20;99.90
11035;DHT22;5571;48.110;-1.706;2024-03-02T13:57:38;10.30;99.90
11035;DHT22;5571;48.110;-1.706;2024-03-02T14:00:04;10.30;99.90
11035;DHT22;5571;48.110;-1.706;2024-03-02T14:02:36;10.40;99.90
11035;DHT22;5571;48.110;-1.706;2024-03-02T14:05:01;10.50;99.90
11035;DHT22;5571;48.110;-1.706;2024-03-02T14:07:27;10.60;99.90
11035;DHT22;5571;48.110;-1.706;2024-03-02T14:09:53;10.60;99.90
11035;DHT22;5571;48.110;-1.706;2024-03-02T14:12:18;10.70;99.90
11035;DHT22;5571;48.110;-1.706;2024-03-02T14:14:44;10.70;99.90
11035;DHT22;5571;48.110;-1.706;2024-03-02T14:17:10;10.80;99.90
11035;DHT22;5571;48.110;-1.706;2024-03-02T14:19:40;10.80;99.90
11035;DHT22;5571;48.110;-1.706;2024-03-02T14:22:06;11.00;99.90
11035;DHT22;5571;48.110;-1.706;2024-03-02T14:24:32;11.10;99.90
11035;DHT22;5571;48.110;-1.706;2024-03-02T14:26:57;11.30;99.90
11035;DHT22;5571;48.110;-1.706;2024-03-02T14:29:24;11.40;99.90
11035;DHT22;5571;48.110;-1.706;2024-03-02T14:31:50;11.60;99.90
11035;DHT22;5571;48.110;-1.706;2024-03-02T14:34:16;11.70;99.90
11035;DHT22;5571;48.110;-1.706;2024-03-02T14:36:41;11.80;99.90
11035;DHT22;5571;48.110;-1.706;2024-03-02T14:39:09;12.00;99.90
11035;DHT22;5571;48.110;-1.706;2024-03-02T14:41:36;12.20;99.90
11035;DHT22;5571;48.110;-1.706;2024-03-02T14:44:02;12.30;99.90
11035;DHT22;5571;48.110;-1.706;2024-03-02T14:46:28;12.30;99.90
11035;DHT22;5571;48.110;-1.706;2024-03-02T14:48:54;12.20;99.90
11035;DHT22;5571;48.110;-1.706;2024-03-02T14:51:20;12.00;99.90
11035;DHT22;5571;48.110;-1.706;2024-03-02T14:53:45;11.90;99.90
11035;DHT22;5571;48.110;-1.706;2024-03-02T14:56:11;11.70;99.90
11035;DHT22;5571;48.110;-1.706;2024-03-02T14:58:38;11.60;99.90
11035;DHT22;5571;48.110;-1.706;2024-03-02T15:01:05;11.50;99.90
11035;DHT22;5571;48.110;-1.706;2024-03-02T15:03:35;11.40;99.90
11035;DHT22;5571;48.110;-1.706;2024-03-02T15:06:01;11.20;99.90
11035;DHT22;5571;48.110;-1.706;2024-03-02T15:08:28;11.10;99.90
11035;DHT22;5571;48.110;-1.706;2024-03-02T15:10:53;10.90;99.90
11035;DHT22;5571;48.110;-1.706;2024-03-02T15:13:21;10.80;99.90
11035;DHT22;5571;48.110;-1.706;2024-03-02T15:15:47;10.70;99.90
11035;DHT22;5571;48.110;-1.706;2024-03-02T15:18:13;10.60;99.90
11035;DHT22;5571;48.110;-1.706;2024-03-02T15:20:38;10.60;99.90
11035;DHT22;5571;48.110;-1.706;2024-03-02T15:23:04;10.50;99.90
11035;DHT22;5571;48.110;-1.706;2024-03-02T15:25:30;10.50;99.90
11035;DHT22;5571;48.110;-1.706;2024-03-02T15:27:56;10.50;99.90
11035;DHT22;5571;48.110;-1.706;2024-03-02T15:30:21;10.60;99.90
11035;DHT22;5571;48.110;-1.706;2024-03-02T15:32:47;10.80;99.90
11035;DHT22;5571;48.110;-1.706;2024-03-02T15:35:13;11.00;99.90
11035;DHT22;5571;48.110;-1.706;2024-03-02T15:37:38;11.30;99.90
11035;DHT22;5571;48.110;-1.706;2024-03-02T15:40:05;11.60;99.90
11035;DHT22;5571;48.110;-1.706;2024-03-02T15:42:34;11.70;99.90
11035;DHT22;5571;48.110;-1.706;2024-03-02T15:45:01;11.70;99.90
11035;DHT22;5571;48.110;-1.706;2024-03-02T15:47:27;11.60;99.90
11035;DHT22;5571;48.110;-1.706;2024-03-02T15:49:53;11.50;99.90